Terminal Aerodrome Forecast
Issued by NWS Miami, FL

Home | Current Version | Previous Version | Text Only | Print | Product List | Glossary On
Versions: 1 2 3 4 5 6 7 8 9 10 11 12 13 14 15 16 17 18 19 20 21 22 23 24 25 26 27 28
000
FTUS42 KMFL 211144
TAFAPF
TAF
KAPF 211144Z 2112/2212 08005KT P6SM SKC
     FM211500 11012KT P6SM VCTS SCT020CB BKN060 OVC120
      TEMPO 2115/2119 3SM TSRA BKN018CB
     FM212000 12015KT P6SM SCT020 BKN050
     FM220200 09008KT P6SM FEW020 BKN090=

USA.gov is the U.S. government's official web portal to all federal, state and local government web resources and services.